createdAt,value
2023-02-06T00:01:48.702Z,-1.22
2023-02-06T00:04:16.644Z,-1.24
2023-02-06T00:06:44.916Z,-1.24
2023-02-06T00:09:13.370Z,-1.22
2023-02-06T00:11:41.563Z,-1.19
2023-02-06T00:14:09.411Z,-1.15
2023-02-06T00:16:57.222Z,-1.11
2023-02-06T00:19:27.506Z,-1.08
2023-02-06T00:21:55.582Z,-1.07
2023-02-06T00:24:23.933Z,-1.07
2023-02-06T00:26:52.364Z,-1.08
2023-02-06T00:29:20.360Z,-1.11
2023-02-06T00:31:48.795Z,-1.14
2023-02-06T00:34:16.744Z,-1.15
2023-02-06T00:36:44.608Z,-1.16
2023-02-06T00:39:12.601Z,-1.15
2023-02-06T00:41:41.709Z,-1.14
2023-02-06T00:44:09.579Z,-1.11
2023-02-06T00:46:37.668Z,-1.07
2023-02-06T00:49:05.613Z,-1.04
2023-02-06T00:51:36.220Z,-1.01
2023-02-06T00:54:04.105Z,-0.99
2023-02-06T00:56:32.218Z,-0.99
2023-02-06T00:59:00.274Z,-1.00
2023-02-06T01:01:28.629Z,-1.02
2023-02-06T01:03:56.613Z,-1.03
2023-02-06T01:06:24.885Z,-1.04
2023-02-06T01:08:52.842Z,-1.04
2023-02-06T01:11:22.612Z,-1.01
2023-02-06T01:13:50.572Z,-0.98
2023-02-06T01:16:21.783Z,-0.95
2023-02-06T01:18:49.913Z,-0.92
2023-02-06T01:21:20.556Z,-0.90
2023-02-06T01:23:49.563Z,-0.89
2023-02-06T01:26:19.809Z,-0.90
2023-02-06T01:28:48.103Z,-0.93
2023-02-06T01:31:18.652Z,-0.95
2023-02-06T01:33:47.529Z,-0.99
2023-02-06T01:36:15.607Z,-1.01
2023-02-06T01:38:44.251Z,-1.04
2023-02-06T01:41:12.785Z,-1.05
2023-02-06T01:43:44.131Z,-1.04
2023-02-06T01:46:12.233Z,-1.01
2023-02-06T01:48:45.741Z,-1.00
2023-02-06T01:51:15.731Z,-0.97
2023-02-06T01:53:44.530Z,-0.96
2023-02-06T01:56:14.283Z,-0.95
2023-02-06T01:58:43.024Z,-0.97
2023-02-06T02:01:11.099Z,-0.99
2023-02-06T02:03:41.404Z,-1.03
2023-02-06T02:06:12.099Z,-1.07
2023-02-06T02:08:42.577Z,-1.10
2023-02-06T02:11:11.988Z,-1.15
2023-02-06T02:13:41.976Z,-1.17
2023-02-06T02:16:20.054Z,-1.18
2023-02-06T02:19:25.406Z,-1.18
2023-02-06T02:22:21.271Z,-1.15
2023-02-06T02:25:15.939Z,-1.15
2023-02-06T02:28:22.908Z,-1.16
2023-02-06T02:31:12.752Z,-1.17
2023-02-06T02:33:53.784Z,-1.21
2023-02-06T02:36:25.756Z,-1.25
2023-02-06T02:39:26.140Z,-1.29
2023-02-06T02:41:58.044Z,-1.36
2023-02-06T02:44:37.917Z,-1.41
2023-02-06T02:47:07.531Z,-1.46
2023-02-06T02:49:35.525Z,-1.49
2023-02-06T02:52:04.070Z,-1.52
2023-02-06T02:54:32.011Z,-1.52
2023-02-06T02:57:06.687Z,-1.50
2023-02-06T02:59:36.695Z,-1.47
2023-02-06T03:02:32.580Z,-1.42
2023-02-06T03:05:04.258Z,-1.38
2023-02-06T03:07:34.180Z,-1.35
2023-02-06T03:10:32.319Z,-1.35
2023-02-06T03:13:09.284Z,-1.36
2023-02-06T03:15:43.749Z,-1.39
2023-02-06T03:18:22.925Z,-1.42
2023-02-06T03:20:51.083Z,-1.46
2023-02-06T03:23:25.135Z,-1.47
2023-02-06T03:25:55.097Z,-1.49
2023-02-06T03:28:34.114Z,-1.49
2023-02-06T03:31:03.512Z,-1.47
2023-02-06T03:33:38.105Z,-1.44
2023-02-06T03:36:06.402Z,-1.38
2023-02-06T03:38:35.876Z,-1.34
2023-02-06T03:41:03.897Z,-1.32
2023-02-06T03:43:32.960Z,-1.31
2023-02-06T03:46:02.436Z,-1.31
2023-02-06T03:48:33.847Z,-1.32
2023-02-06T03:51:05.163Z,-1.34
2023-02-06T03:53:34.849Z,-1.36
2023-02-06T03:56:07.592Z,-1.37
2023-02-06T03:58:36.638Z,-1.39
2023-02-06T04:01:05.125Z,-1.38
2023-02-06T04:03:33.144Z,-1.35
2023-02-06T04:06:01.265Z,-1.32
2023-02-06T04:08:30.704Z,-1.27
2023-02-06T04:10:58.657Z,-1.23
2023-02-06T04:13:27.543Z,-1.21
2023-02-06T04:15:56.381Z,-1.20
2023-02-06T04:18:24.629Z,-1.20
2023-02-06T04:20:54.624Z,-1.22
2023-02-06T04:23:22.842Z,-1.24
2023-02-06T04:25:50.830Z,-1.27
2023-02-06T04:28:19.222Z,-1.31
2023-02-06T04:30:51.207Z,-1.33
2023-02-06T04:33:19.366Z,-1.35
2023-02-06T04:35:48.895Z,-1.36
2023-02-06T04:38:16.791Z,-1.35
2023-02-06T04:40:44.665Z,-1.32
2023-02-06T04:43:12.672Z,-1.29
2023-02-06T04:45:41.982Z,-1.26
2023-02-06T04:48:10.443Z,-1.23
2023-02-06T04:50:39.010Z,-1.22
2023-02-06T04:53:07.027Z,-1.23
2023-02-06T04:55:35.788Z,-1.24
2023-02-06T04:58:04.168Z,-1.27
2023-02-06T05:00:32.570Z,-1.30
2023-02-06T05:03:00.565Z,-1.34
2023-02-06T05:05:28.727Z,-1.36
2023-02-06T05:07:56.586Z,-1.39
2023-02-06T05:10:24.559Z,-1.41
2023-02-06T05:12:53.194Z,-1.39
2023-02-06T05:15:21.358Z,-1.37
2023-02-06T05:17:50.011Z,-1.34
2023-02-06T05:20:18.793Z,-1.31
2023-02-06T05:22:47.810Z,-1.29
2023-02-06T05:25:15.934Z,-1.29
2023-02-06T05:27:44.305Z,-1.30
2023-02-06T05:30:12.910Z,-1.33
2023-02-06T05:32:42.152Z,-1.37
2023-02-06T05:35:10.170Z,-1.41
2023-02-06T05:37:38.596Z,-1.45
2023-02-06T05:40:07.227Z,-1.47
2023-02-06T05:42:35.399Z,-1.48
2023-02-06T05:45:03.605Z,-1.48
2023-02-06T05:47:31.493Z,-1.47
2023-02-06T06:26:13.304Z,-1.30
2023-02-06T06:28:41.681Z,-1.20
2023-02-06T06:31:11.852Z,-1.18
2023-02-06T06:33:40.120Z,-1.17
2023-02-06T06:36:08.881Z,-1.12
2023-02-06T06:38:37.173Z,-1.08
2023-02-06T06:41:05.284Z,-1.02
2023-02-06T06:43:33.639Z,-0.93
2023-02-06T06:46:01.915Z,-0.83
2023-02-06T06:48:29.936Z,-0.72
2023-02-06T06:50:57.854Z,-0.59
2023-02-06T06:53:26.154Z,-0.47
2023-02-06T06:55:54.380Z,-0.36
2023-02-06T06:58:22.286Z,-0.26
2023-02-06T07:00:50.185Z,-0.19
2023-02-06T07:03:18.337Z,-0.11
2023-02-06T07:05:47.348Z,-0.02
2023-02-06T07:08:15.200Z,0.09
2023-02-06T07:10:43.699Z,0.20
2023-02-06T07:13:12.599Z,0.33
2023-02-06T07:15:41.029Z,0.46
2023-02-06T07:18:10.720Z,0.61
2023-02-06T07:20:39.862Z,0.76
2023-02-06T07:23:08.044Z,0.89
2023-02-06T07:25:36.811Z,1.03
2023-02-06T07:28:05.681Z,1.13
2023-02-06T07:30:34.147Z,1.22
2023-02-06T07:33:04.889Z,1.29
2023-02-06T07:35:34.285Z,1.36
2023-02-06T07:38:02.526Z,1.41
2023-02-06T07:40:43.930Z,1.44
2023-02-06T07:43:13.452Z,1.46
2023-02-06T07:45:41.769Z,1.48
2023-02-06T07:48:10.018Z,1.52
2023-02-06T07:50:38.432Z,1.54
2023-02-06T07:53:08.251Z,1.58
2023-02-06T07:55:38.296Z,1.65
2023-02-06T07:58:06.307Z,1.76
2023-02-06T08:00:34.451Z,1.91
2023-02-06T08:03:03.111Z,2.06
2023-02-06T08:05:31.768Z,2.23
2023-02-06T08:07:59.774Z,2.40
2023-02-06T08:10:27.698Z,2.57
2023-02-06T08:13:15.740Z,2.75
2023-02-06T08:15:45.225Z,2.90
2023-02-06T08:18:16.298Z,3.04
2023-02-06T08:20:44.225Z,3.17
2023-02-06T08:23:12.056Z,3.29
2023-02-06T08:25:39.954Z,3.41
2023-02-06T08:28:08.139Z,3.54
2023-02-06T08:30:37.069Z,3.65
2023-02-06T08:33:05.074Z,3.77
2023-02-06T08:35:33.661Z,3.89
2023-02-06T08:38:02.060Z,4.03
2023-02-06T08:40:31.377Z,4.16
2023-02-06T08:42:59.202Z,4.27
2023-02-06T08:45:27.017Z,4.34
2023-02-06T08:47:55.086Z,4.40
2023-02-06T08:50:23.055Z,4.47
2023-02-06T08:52:51.218Z,4.53
2023-02-06T08:55:19.986Z,4.60
2023-02-06T08:57:53.318Z,4.67
2023-02-06T09:00:21.669Z,4.72
2023-02-06T09:02:49.684Z,4.78
2023-02-06T09:05:17.656Z,4.84
2023-02-06T09:07:46.524Z,4.88
2023-02-06T09:10:26.822Z,4.91
2023-02-06T09:12:56.058Z,4.92
2023-02-06T09:15:24.044Z,4.91
2023-02-06T09:17:52.011Z,4.91
2023-02-06T09:20:20.963Z,4.89
2023-02-06T09:22:48.980Z,4.86
2023-02-06T09:25:16.971Z,4.83
2023-02-06T09:27:46.896Z,4.83
2023-02-06T09:30:15.158Z,4.84
2023-02-06T09:32:43.497Z,4.88
2023-02-06T09:35:11.485Z,4.94
2023-02-06T09:37:39.368Z,4.98
2023-02-06T09:40:08.542Z,4.99
2023-02-06T09:42:38.358Z,5.01
2023-02-06T09:45:08.212Z,5.01
2023-02-06T09:47:39.453Z,5.02
2023-02-06T09:50:16.707Z,5.03
2023-02-06T09:52:57.594Z,5.07
2023-02-06T09:55:43.464Z,5.09
2023-02-06T09:58:21.258Z,5.12
2023-02-06T10:00:53.471Z,5.15
2023-02-06T10:03:33.690Z,5.12
2023-02-06T10:06:19.528Z,5.08
2023-02-06T10:08:55.931Z,5.05
2023-02-06T10:11:39.314Z,5.01
2023-02-06T10:14:32.446Z,4.97
2023-02-06T10:17:05.538Z,4.98
2023-02-06T10:19:39.451Z,5.02
2023-02-06T10:22:17.062Z,5.07
2023-02-06T10:25:05.972Z,5.13
2023-02-06T10:27:34.698Z,5.17
2023-02-06T10:30:02.882Z,5.19
2023-02-06T10:32:44.855Z,5.17
2023-02-06T10:35:47.304Z,5.12
2023-02-06T10:38:22.050Z,5.07
2023-02-06T10:41:08.796Z,5.03
2023-02-06T10:43:49.793Z,5.04
2023-02-06T10:46:23.937Z,5.08
2023-02-06T10:49:20.607Z,5.12
2023-02-06T10:51:53.164Z,5.16
2023-02-06T10:54:31.773Z,5.21
2023-02-06T10:57:01.460Z,5.27
2023-02-06T10:59:39.100Z,5.31
2023-02-06T11:02:11.883Z,5.32
2023-02-06T11:04:42.855Z,5.33
2023-02-06T11:07:33.822Z,5.29
2023-02-06T11:10:04.708Z,5.24
2023-02-06T11:13:05.071Z,5.15
2023-02-06T11:15:37.013Z,5.05
2023-02-06T11:18:06.634Z,4.98
2023-02-06T11:20:37.035Z,4.92
2023-02-06T11:23:20.692Z,4.82
2023-02-06T11:26:14.373Z,4.67
2023-02-06T11:29:01.859Z,4.51
2023-02-06T11:32:00.369Z,4.34
2023-02-06T11:34:36.679Z,4.22
2023-02-06T11:37:07.370Z,4.11
2023-02-06T11:39:39.498Z,4.02
2023-02-06T11:42:28.789Z,3.94
2023-02-06T11:44:57.348Z,3.83
2023-02-06T11:47:32.948Z,3.75
2023-02-06T11:50:13.097Z,3.71
2023-02-06T11:52:46.753Z,3.69
2023-02-06T11:55:22.394Z,3.69
2023-02-06T11:58:12.044Z,3.68
2023-02-06T12:01:06.669Z,3.70
2023-02-06T12:03:34.909Z,3.71
2023-02-06T12:06:14.915Z,3.69
2023-02-06T12:08:50.298Z,3.69
2023-02-06T12:11:22.522Z,3.69
2023-02-06T12:14:13.175Z,3.69
2023-02-06T12:16:43.401Z,3.64
2023-02-06T12:19:37.055Z,3.52
2023-02-06T12:22:11.927Z,3.40
2023-02-06T12:24:43.331Z,3.39
2023-02-06T12:27:34.607Z,3.41
2023-02-06T12:30:20.579Z,3.40
2023-02-06T12:32:52.754Z,3.37
2023-02-06T12:35:31.663Z,3.31
2023-02-06T12:38:41.161Z,3.22
2023-02-06T12:41:22.471Z,3.11
2023-02-06T12:43:59.657Z,3.05
2023-02-06T12:46:29.590Z,3.01
2023-02-06T12:49:07.819Z,2.96
2023-02-06T12:51:45.303Z,2.89
2023-02-06T12:54:19.879Z,2.79
2023-02-06T12:57:12.980Z,2.69
2023-02-06T12:59:57.841Z,2.56
2023-02-06T13:02:50.978Z,2.45
2023-02-06T13:05:37.365Z,2.34
2023-02-06T13:08:14.812Z,2.23
2023-02-06T13:10:43.781Z,2.14
2023-02-06T13:13:26.106Z,2.07
2023-02-06T13:15:54.933Z,2.04
2023-02-06T13:18:41.202Z,2.01
2023-02-06T13:21:36.237Z,1.97
2023-02-06T13:24:04.067Z,1.94
2023-02-06T13:26:53.221Z,1.93
2023-02-06T13:29:25.438Z,1.91
2023-02-06T13:32:11.989Z,1.87
2023-02-06T13:34:47.126Z,1.81
2023-02-06T13:37:40.238Z,1.76
2023-02-06T13:40:23.415Z,1.68
2023-02-06T13:42:54.859Z,1.59
2023-02-06T13:45:32.093Z,1.49
2023-02-06T13:48:07.956Z,1.41
2023-02-06T13:50:48.730Z,1.34
2023-02-06T13:53:41.487Z,1.26
2023-02-06T13:56:27.963Z,1.19
2023-02-06T13:58:56.633Z,1.13
2023-02-06T14:01:30.869Z,1.08
2023-02-06T14:15:21.462Z,1.28
2023-02-06T14:18:01.790Z,1.17
2023-02-06T14:20:57.504Z,1.03
2023-02-06T14:23:35.822Z,0.90
2023-02-06T14:26:21.804Z,0.76
2023-02-06T14:29:11.213Z,0.63
2023-02-06T14:31:39.711Z,0.49
2023-02-06T14:34:22.926Z,0.39
2023-02-06T14:37:10.230Z,0.29
2023-02-06T14:39:49.043Z,0.17
2023-02-06T14:42:24.027Z,0.08
2023-02-06T14:45:03.166Z,-0.00
2023-02-06T14:47:33.827Z,-0.09
2023-02-06T14:50:01.788Z,-0.16
2023-02-06T14:52:30.813Z,-0.23
2023-02-06T14:54:58.808Z,-0.31
2023-02-06T14:57:30.787Z,-0.37
2023-02-06T15:00:01.584Z,-0.45
2023-02-06T15:02:34.614Z,-0.52
2023-02-06T15:05:03.720Z,-0.58
2023-02-06T15:07:37.320Z,-0.65
2023-02-06T15:10:14.195Z,-0.72
2023-02-06T15:12:50.876Z,-0.79
2023-02-06T15:15:25.927Z,-0.84
2023-02-06T15:18:04.704Z,-0.90
2023-02-06T15:20:56.175Z,-0.97
2023-02-06T15:23:30.453Z,-1.05
2023-02-06T15:26:29.218Z,-1.11
2023-02-06T15:29:01.754Z,-1.17
2023-02-06T15:31:30.137Z,-1.22
2023-02-06T15:33:59.997Z,-1.27
2023-02-06T15:36:31.892Z,-1.32
2023-02-06T15:39:00.417Z,-1.37
2023-02-06T15:41:29.702Z,-1.42
2023-02-06T15:44:02.826Z,-1.46
2023-02-06T15:46:31.325Z,-1.51
2023-02-06T15:48:59.700Z,-1.57
2023-02-06T15:51:38.840Z,-1.61
2023-02-06T15:54:17.381Z,-1.65
2023-02-06T15:56:50.279Z,-1.69
2023-02-06T15:59:24.212Z,-1.74
2023-02-06T16:01:54.273Z,-1.78
2023-02-06T16:04:33.288Z,-1.81
2023-02-06T16:07:13.259Z,-1.84
2023-02-06T16:10:04.061Z,-1.85
2023-02-06T16:12:36.434Z,-1.86
2023-02-06T16:15:33.496Z,-1.85
2023-02-06T16:18:18.725Z,-1.80
2023-02-06T16:20:47.149Z,-1.75
2023-02-06T16:23:17.956Z,-1.71
2023-02-06T16:25:47.272Z,-1.68
2023-02-06T16:28:23.143Z,-1.65
2023-02-06T16:31:04.432Z,-1.65
2023-02-06T18:19:05.356Z,-4.01
2023-02-06T18:21:34.154Z,-3.94
2023-02-06T18:24:01.964Z,-3.93
2023-02-06T18:26:30.195Z,-3.93
2023-02-06T18:28:58.426Z,-3.92
2023-02-06T18:31:33.011Z,-3.92
2023-02-06T18:34:02.893Z,-3.93
2023-02-06T18:36:30.898Z,-3.93
2023-02-06T18:38:58.822Z,-3.96
2023-02-06T18:41:45.411Z,-3.98
2023-02-06T18:44:13.235Z,-3.98
2023-02-06T18:46:41.072Z,-3.99
2023-02-06T18:49:08.934Z,-3.98
2023-02-06T18:51:38.503Z,-3.95
2023-02-06T18:54:07.810Z,-3.90
2023-02-06T18:56:37.019Z,-3.86
2023-02-06T18:59:05.114Z,-3.80
2023-02-06T19:01:33.212Z,-3.75
2023-02-06T19:04:01.461Z,-3.70
2023-02-06T19:06:32.205Z,-3.67
2023-02-06T19:09:00.163Z,-3.65
2023-02-06T19:11:28.234Z,-3.64
2023-02-06T19:13:56.178Z,-3.65
2023-02-06T19:16:26.436Z,-3.65
2023-02-06T19:18:54.491Z,-3.67
2023-02-06T19:21:23.509Z,-3.68
2023-02-06T19:24:00.480Z,-3.69
2023-02-06T19:26:28.599Z,-3.73
2023-02-06T19:28:57.029Z,-3.76
2023-02-06T19:31:25.028Z,-3.81
2023-02-06T19:33:55.408Z,-3.84
2023-02-06T19:36:24.027Z,-3.88
2023-02-06T19:38:55.006Z,-3.89
2023-02-06T19:41:24.497Z,-3.89
2023-02-06T19:43:53.573Z,-3.87
2023-02-06T19:46:23.064Z,-3.83
2023-02-06T19:48:52.643Z,-3.80
2023-02-06T19:51:25.757Z,-3.80
2023-02-06T19:53:54.431Z,-3.82
2023-02-06T19:56:27.090Z,-3.89
2023-02-06T19:58:59.398Z,-3.98
2023-02-06T20:01:30.250Z,-4.08
2023-02-06T20:03:58.952Z,-4.18
2023-02-06T20:06:28.350Z,-4.25
2023-02-06T20:08:56.614Z,-4.30
2023-02-06T20:11:25.611Z,-4.32
2023-02-06T20:13:55.688Z,-4.33
2023-02-06T20:16:29.082Z,-4.31
2023-02-06T20:18:57.800Z,-4.26
2023-02-06T20:21:39.405Z,-4.18
2023-02-06T20:24:18.667Z,-4.09
2023-02-06T20:26:46.760Z,-3.99
2023-02-06T20:29:31.489Z,-3.90
2023-02-06T20:31:59.697Z,-3.82
2023-02-06T20:34:27.901Z,-3.76
2023-02-06T20:36:56.507Z,-3.71
2023-02-06T20:39:24.729Z,-3.68
2023-02-06T20:41:52.780Z,-3.66
2023-02-06T20:44:20.832Z,-3.65
2023-02-06T20:46:48.845Z,-3.65
2023-02-06T20:49:18.631Z,-3.63
2023-02-06T20:51:48.919Z,-3.62
2023-02-06T20:54:17.673Z,-3.61
2023-02-06T20:56:45.631Z,-3.59
2023-02-06T20:59:15.091Z,-3.55
2023-02-06T21:01:43.508Z,-3.52
2023-02-06T21:04:12.627Z,-3.49
2023-02-06T21:06:40.685Z,-3.45
2023-02-06T21:09:09.175Z,-3.45
2023-02-06T21:11:43.008Z,-3.45
2023-02-06T21:14:11.727Z,-3.47
2023-02-06T21:16:39.840Z,-3.49
2023-02-06T21:19:09.125Z,-3.52
2023-02-06T21:21:37.551Z,-3.54
2023-02-06T21:24:05.893Z,-3.57
2023-02-06T21:26:34.138Z,-3.60
2023-02-06T21:29:06.068Z,-3.63
2023-02-06T21:31:37.874Z,-3.65
2023-02-06T21:34:19.025Z,-3.66
2023-02-06T21:36:48.168Z,-3.66
2023-02-06T21:39:18.352Z,-3.64
2023-02-06T21:41:47.028Z,-3.59
2023-02-06T21:44:14.943Z,-3.56
2023-02-06T21:46:42.854Z,-3.52
2023-02-06T21:49:11.784Z,-3.49
2023-02-06T21:51:40.132Z,-3.47
2023-02-06T21:54:08.548Z,-3.47
2023-02-06T21:56:38.210Z,-3.47
2023-02-06T21:59:06.716Z,-3.49
2023-02-06T22:01:35.570Z,-3.51
2023-02-06T22:04:03.892Z,-3.53
2023-02-06T22:06:35.454Z,-3.54
2023-02-06T22:09:07.792Z,-3.55
2023-02-06T22:11:39.239Z,-3.55
2023-02-06T22:14:14.528Z,-3.54
2023-02-06T22:16:42.769Z,-3.51
2023-02-06T22:19:11.195Z,-3.47
2023-02-06T22:21:39.128Z,-3.44
2023-02-06T22:24:07.706Z,-3.40
2023-02-06T22:26:38.642Z,-3.39
2023-02-06T22:29:07.826Z,-3.37
2023-02-06T22:31:38.936Z,-3.38
2023-02-06T22:34:11.814Z,-3.39
2023-02-06T22:36:39.726Z,-3.41
2023-02-06T22:39:08.317Z,-3.44
2023-02-06T22:41:38.660Z,-3.49
2023-02-06T22:44:06.793Z,-3.53
2023-02-06T22:46:36.472Z,-3.58
2023-02-06T22:49:05.273Z,-3.61
2023-02-06T22:51:34.179Z,-3.63
2023-02-06T22:54:02.923Z,-3.62
2023-02-06T22:56:36.001Z,-3.62
2023-02-06T22:59:17.921Z,-3.59
2023-02-06T23:01:53.090Z,-3.55
2023-02-06T23:04:26.930Z,-3.51
2023-02-06T23:06:55.389Z,-3.49
2023-02-06T23:09:25.515Z,-3.47
2023-02-06T23:12:01.214Z,-3.46
2023-02-06T23:14:32.398Z,-3.46
2023-02-06T23:17:00.897Z,-3.47
2023-02-06T23:19:33.208Z,-3.48
2023-02-06T23:22:03.764Z,-3.50
2023-02-06T23:24:32.319Z,-3.53
2023-02-06T23:27:06.244Z,-3.54
2023-02-06T23:29:34.664Z,-3.55
2023-02-06T23:32:02.505Z,-3.55
2023-02-06T23:34:30.601Z,-3.54
2023-02-06T23:36:58.476Z,-3.51
2023-02-06T23:39:26.602Z,-3.46
2023-02-06T23:41:54.448Z,-3.42
2023-02-06T23:44:22.308Z,-3.38
2023-02-06T23:46:50.910Z,-3.36
2023-02-06T23:49:18.837Z,-3.34
2023-02-06T23:51:47.117Z,-3.33
2023-02-06T23:54:15.021Z,-3.33
2023-02-06T23:56:46.125Z,-3.35
2023-02-06T23:59:14.285Z,-3.37
